createdAt,value
2023-01-04T00:00:33.271Z,8.30
2023-01-04T00:05:38.403Z,7.53
2023-01-04T00:10:42.166Z,8.32
2023-01-04T00:15:45.770Z,7.53
2023-01-04T00:20:50.863Z,7.07
2023-01-04T00:25:54.566Z,7.45
2023-01-04T00:30:58.755Z,6.53
2023-01-04T00:36:11.204Z,7.00
2023-01-04T00:41:42.037Z,9.90
2023-01-04T00:46:41.544Z,7.93
2023-01-04T00:51:46.625Z,6.38
2023-01-04T00:56:50.770Z,6.70
2023-01-04T01:01:54.790Z,8.13
2023-01-04T01:06:59.827Z,7.25
2023-01-04T01:12:03.449Z,6.65
2023-01-04T01:17:07.306Z,6.60
2023-01-04T01:22:12.439Z,8.52
2023-01-04T01:27:16.027Z,6.03
2023-01-04T01:32:19.671Z,6.57
2023-01-04T01:37:24.710Z,7.45
2023-01-04T01:42:28.408Z,6.82
2023-01-04T01:47:42.811Z,6.10
2023-01-04T01:52:49.492Z,5.75
2023-01-04T01:57:56.237Z,7.43
2023-01-04T02:03:14.837Z,9.75
2023-01-04T02:08:23.856Z,6.60
2023-01-04T02:13:45.906Z,6.95
2023-01-04T02:19:00.094Z,6.07
2023-01-04T02:24:41.029Z,9.95
2023-01-04T02:30:39.767Z,7.75
2023-01-04T02:35:58.057Z,7.82
2023-01-04T02:41:13.869Z,5.90
2023-01-04T02:46:24.658Z,9.18
2023-01-04T02:51:33.543Z,8.35
2023-01-04T02:57:05.206Z,7.60
2023-01-04T03:02:49.672Z,7.03
2023-01-04T03:08:05.042Z,5.57
2023-01-04T03:13:17.437Z,5.13
2023-01-04T03:18:27.390Z,6.47
2023-01-04T03:23:55.817Z,4.70
2023-01-04T03:29:26.293Z,5.80
2023-01-04T03:34:47.861Z,4.80
2023-01-04T03:40:34.729Z,6.72
2023-01-04T03:46:05.917Z,4.90
2023-01-04T03:51:16.562Z,4.72
2023-01-04T03:56:24.534Z,8.98
2023-01-04T04:01:29.845Z,5.60
2023-01-04T04:06:51.023Z,4.32
2023-01-04T04:11:56.097Z,4.43
2023-01-04T04:16:59.702Z,5.00
2023-01-04T04:22:03.337Z,7.63
2023-01-04T04:27:08.350Z,4.32
2023-01-04T04:32:12.065Z,3.88
2023-01-04T04:37:16.248Z,5.22
2023-01-04T04:42:21.387Z,4.03
2023-01-04T04:47:25.195Z,3.53
2023-01-04T04:52:28.937Z,4.35
2023-01-04T04:57:34.015Z,4.30
2023-01-04T05:02:37.756Z,4.95
2023-01-04T05:07:41.603Z,3.80
2023-01-04T05:13:01.920Z,4.28
2023-01-04T05:18:07.981Z,3.90
2023-01-04T05:23:14.511Z,5.15
2023-01-04T05:28:19.546Z,4.57
2023-01-04T05:33:26.362Z,7.63
2023-01-04T05:38:31.146Z,6.47
2023-01-04T05:43:36.058Z,4.35
2023-01-04T05:48:39.682Z,4.03
2023-01-04T05:53:46.458Z,7.05
2023-01-04T05:58:51.404Z,3.88
2023-01-04T06:03:55.136Z,2.85
2023-01-04T06:08:58.790Z,5.28
2023-01-04T06:14:03.767Z,6.00
2023-01-04T06:19:07.474Z,4.82
2023-01-04T06:24:12.949Z,4.72
2023-01-04T06:29:18.200Z,2.85
2023-01-04T06:34:26.843Z,3.78
2023-01-04T06:39:34.292Z,2.90
2023-01-04T06:44:39.351Z,3.47
2023-01-04T06:49:42.925Z,1.98
2023-01-04T06:54:46.655Z,2.85
2023-01-04T06:59:51.819Z,4.10
2023-01-04T07:04:55.559Z,5.53
2023-01-04T07:10:03.718Z,4.35
2023-01-04T07:15:39.065Z,3.50
2023-01-04T07:20:37.677Z,4.45
2023-01-04T07:25:41.488Z,2.80
2023-01-04T07:30:46.761Z,3.35
2023-01-04T07:35:50.462Z,3.30
2023-01-04T07:40:55.854Z,2.95
2023-01-04T07:46:01.785Z,3.20
2023-01-04T07:51:06.526Z,2.85
2023-01-04T07:56:15.130Z,2.58
2023-01-04T08:01:23.665Z,10.00
2023-01-04T08:06:27.331Z,3.58
2023-01-04T08:11:31.218Z,4.47
2023-01-04T08:16:39.617Z,5.18
2023-01-04T08:21:43.723Z,2.80
2023-01-04T08:26:48.761Z,4.28
2023-01-04T08:31:53.771Z,8.35
2023-01-04T08:36:57.469Z,4.78
2023-01-04T08:42:10.860Z,4.43
2023-01-04T08:47:24.180Z,6.00
2023-01-04T08:52:28.100Z,5.18
2023-01-04T08:57:31.673Z,7.57
2023-01-04T09:02:37.162Z,2.65
2023-01-04T09:07:41.003Z,2.97
2023-01-04T09:12:45.706Z,3.78
2023-01-04T09:18:29.514Z,4.78
2023-01-04T09:23:15.532Z,8.65
2023-01-04T09:28:19.459Z,12.40
2023-01-04T09:33:35.968Z,39.65
2023-01-04T09:38:49.295Z,43.63
2023-01-04T09:43:56.662Z,45.25
2023-01-04T09:49:18.165Z,37.67
2023-01-04T09:54:25.139Z,37.92
2023-01-04T09:59:33.189Z,40.90
2023-01-04T10:04:47.536Z,33.95
2023-01-04T10:09:51.151Z,36.08
2023-01-04T10:15:17.955Z,34.00
2023-01-04T10:21:33.548Z,32.63
2023-01-04T10:26:46.813Z,31.13
2023-01-04T10:31:58.384Z,30.83
2023-01-04T10:37:16.928Z,30.77
2023-01-04T10:42:33.851Z,30.63
2023-01-04T10:47:51.483Z,30.97
2023-01-04T10:58:19.193Z,27.55
2023-01-04T11:03:28.048Z,25.08
2023-01-04T11:08:40.957Z,28.33
2023-01-04T11:13:44.567Z,26.00
2023-01-04T11:18:50.252Z,25.23
2023-01-04T11:24:08.283Z,22.23
2023-01-04T11:29:35.473Z,21.75
2023-01-04T11:34:53.144Z,23.10
2023-01-04T11:40:28.149Z,21.30
2023-01-04T11:45:32.967Z,21.30
2023-01-04T11:50:42.239Z,20.67
2023-01-04T11:55:47.503Z,18.27
2023-01-04T12:00:57.958Z,15.43
2023-01-04T12:06:01.849Z,17.45
2023-01-04T12:11:08.069Z,15.35
2023-01-04T12:16:26.642Z,13.40
2023-01-04T12:21:32.722Z,13.57
2023-01-04T12:26:43.684Z,13.38
2023-01-04T12:31:47.396Z,11.35
2023-01-04T12:37:05.229Z,11.63
2023-01-04T12:42:26.564Z,10.82
2023-01-04T12:48:02.977Z,12.13
2023-01-04T12:53:28.977Z,12.80
2023-01-04T12:59:25.113Z,11.55
2023-01-04T13:04:41.367Z,9.93
2023-01-04T13:09:54.773Z,9.93
2023-01-04T13:15:07.958Z,8.77
2023-01-04T13:20:19.407Z,10.45
2023-01-04T13:25:25.882Z,9.50
2023-01-04T13:30:37.213Z,9.48
2023-01-04T13:35:40.914Z,8.80
2023-01-04T13:40:49.747Z,8.25
2023-01-04T13:46:14.872Z,9.02
2023-01-04T13:51:29.124Z,7.00
2023-01-04T13:56:37.026Z,7.22
2023-01-04T14:01:46.722Z,6.72
2023-01-04T14:06:52.880Z,7.07
2023-01-04T14:12:07.653Z,6.50
2023-01-04T14:17:25.143Z,7.05
2023-01-04T14:22:40.591Z,6.47
2023-01-04T14:27:44.683Z,5.85
2023-01-04T14:32:59.608Z,6.38
2023-01-04T14:38:07.568Z,6.68
2023-01-04T14:43:37.233Z,7.03
2023-01-04T14:48:42.336Z,5.55
2023-01-04T14:53:46.555Z,5.70
2023-01-04T14:58:50.503Z,5.90
2023-01-04T15:03:55.793Z,5.80
2023-01-04T15:08:59.694Z,7.78
2023-01-04T15:14:03.305Z,5.45
2023-01-04T15:19:08.532Z,5.57
2023-01-04T15:24:12.649Z,7.05
2023-01-04T15:29:16.299Z,6.32
2023-01-04T15:34:22.932Z,6.82
2023-01-04T15:39:26.909Z,5.85
2023-01-04T15:44:30.720Z,6.28
2023-01-04T15:49:35.974Z,5.13
2023-01-04T15:54:39.697Z,7.63
2023-01-04T15:59:43.289Z,5.70
2023-01-04T16:04:48.337Z,8.80
2023-01-04T16:09:52.623Z,8.00
2023-01-04T16:14:56.458Z,9.07
2023-01-04T16:20:01.590Z,11.45
2023-01-04T16:25:11.362Z,12.50
2023-01-04T16:30:16.422Z,12.50
2023-01-04T16:35:21.581Z,15.73
2023-01-04T16:40:25.660Z,13.32
2023-01-04T16:45:29.292Z,30.52
2023-01-04T16:50:34.378Z,28.77
2023-01-04T16:55:38.037Z,26.42
2023-01-04T17:00:41.728Z,20.70
2023-01-04T17:05:46.954Z,23.30
2023-01-04T17:10:50.610Z,19.40
2023-01-04T17:15:54.335Z,20.92
2023-01-04T17:21:32.175Z,20.63
2023-01-04T17:26:30.469Z,18.38
2023-01-04T17:31:38.255Z,18.05
2023-01-04T17:36:43.333Z,20.08
2023-01-04T17:41:46.963Z,17.45
2023-01-04T17:46:50.933Z,16.25
2023-01-04T17:51:57.257Z,17.75
2023-01-04T17:57:01.000Z,14.68
2023-01-04T18:02:04.803Z,13.05
2023-01-04T18:12:18.772Z,10.20
2023-01-04T18:17:23.284Z,11.00
2023-01-04T18:22:28.392Z,14.20
2023-01-04T18:27:32.346Z,10.65
2023-01-04T18:32:36.138Z,10.18
2023-01-04T18:37:41.218Z,12.93
2023-01-04T18:42:49.017Z,10.32
2023-01-04T18:52:57.577Z,8.23
2023-01-04T18:58:01.213Z,9.88
2023-01-04T19:03:05.153Z,10.45
2023-01-04T19:08:10.316Z,9.60
2023-01-04T19:13:14.136Z,8.05
2023-01-04T19:18:17.849Z,8.15
2023-01-04T19:23:23.224Z,8.50
2023-01-04T19:28:27.812Z,8.05
2023-01-04T19:33:31.541Z,9.40
2023-01-04T19:38:37.004Z,7.68
2023-01-04T19:43:40.740Z,9.15
2023-01-04T19:48:45.383Z,8.80
2023-01-04T19:53:51.964Z,9.55
2023-01-04T19:58:55.727Z,6.97
2023-01-04T20:03:59.545Z,8.18
2023-01-04T20:09:04.766Z,9.07
2023-01-04T20:14:08.496Z,8.73
2023-01-04T20:19:12.336Z,9.55
2023-01-04T20:24:17.829Z,7.88
2023-01-04T20:29:21.519Z,8.38
2023-01-04T20:34:25.325Z,7.82
2023-01-04T20:39:30.445Z,7.93
2023-01-04T20:44:34.746Z,8.45
2023-01-04T20:49:38.536Z,8.05
2023-01-04T20:54:43.725Z,9.52
2023-01-04T20:59:47.378Z,8.88
2023-01-04T21:04:51.036Z,9.32
2023-01-04T21:09:56.042Z,11.25
2023-01-04T21:14:59.901Z,8.85
2023-01-04T21:20:03.598Z,11.13
2023-01-04T21:25:10.529Z,15.90
2023-01-04T21:30:15.039Z,17.13
2023-01-04T21:35:19.039Z,19.27
2023-01-04T21:40:24.252Z,24.67
2023-01-04T21:45:28.236Z,27.10
2023-01-04T21:50:32.281Z,31.48
2023-01-04T21:55:37.356Z,36.97
2023-01-04T22:00:41.047Z,41.90
2023-01-04T22:05:44.777Z,42.70
2023-01-04T22:10:56.280Z,48.97
2023-01-04T22:16:00.309Z,48.20
2023-01-04T22:21:06.073Z,50.35
2023-01-04T22:26:13.073Z,51.70
2023-01-04T22:31:16.891Z,64.80
2023-01-04T22:36:23.344Z,57.90
2023-01-04T22:41:29.985Z,56.00
2023-01-04T22:46:36.144Z,55.97
2023-01-04T22:51:41.422Z,55.10
2023-01-04T22:56:46.352Z,61.38
2023-01-04T23:01:50.094Z,62.40
2023-01-04T23:06:53.945Z,56.97
2023-01-04T23:11:59.101Z,80.47
2023-01-04T23:17:02.995Z,85.70
2023-01-04T23:22:06.703Z,80.03
2023-01-04T23:27:11.750Z,83.80
2023-01-04T23:32:15.392Z,83.05
2023-01-04T23:37:19.110Z,80.53
2023-01-04T23:42:24.146Z,70.05
2023-01-04T23:47:27.698Z,69.07
2023-01-04T23:52:31.340Z,67.63
2023-01-04T23:57:36.508Z,65.05
